Weather observations for the past three days for
Boise Air Terminal
Imperial (Metric)
Date Time (mdt) Wind (mph) Vis. (mi.) Weather Sky Cond. Temperature (ºF) Relative Humidity Wind Chill (°F) Heat Index (°F) Pressure Precipitation (in)
Air Dwpt 6 hour altimeter (in) sea level (mb) 1 hr 3 hr 6 hr
Max. Min.
01 13:53 NW 10 G 20 10.00 Fair CLR 82 48 31% 81 29.83 1007.2
01 12:53 W 17 10.00 Fair CLR 79 51.1 38% 79 29.85 1007.9
01 11:53 N 14 10.00 Partly Cloudy SCT090 79 51.1 82 64 38% 79 29.85 1007.8
01 10:53 SE 15 10.00 Fair CLR 81 46 29% 80 29.84 1007.6
01 09:53 Calm 10.00 Fair CLR 73.9 45 36% 29.84 1007.4
01 08:53 NW 5 10.00 Fair CLR 69.1 41 36% 29.83 1007.3
01 07:53 NW 7 10.00 Fair CLR 66 39 37% 29.82 1006.8
01 06:53 W 8 10.00 Fair CLR 64.9 37 36% 29.81 1006.3
01 05:53 SE 6 10.00 Fair CLR 73.9 41 75.9 68 31% 29.8 1005.6
01 04:53 SE 13 G 25 10.00 Fair CLR 75.9 39.9 27% 77 29.76 1004.2
01 03:53 SE 13 10.00 Fair CLR 73.9 34 23% 29.77 1004.7
01 02:53 SE 12 10.00 Fair CLR 71.1 30.9 23% 29.79 1005.5
01 01:53 SE 10 10.00 Fair CLR 70 28.9 22% 29.81 1006.3
01 00:53 SE 12 10.00 Fair CLR 73.9 27 17% 29.81 1006.4
31 23:53 SE 7 10.00 Fair CLR 72 26.1 88 70 18% 29.82 1007.1
31 22:53 SE 8 10.00 Fair CLR 71.1 30.9 23% 29.83 1007.7
31 21:53 Calm 10.00 Fair CLR 75 32 21% 76 29.82 1007.4
31 20:53 Calm 10.00 Fair CLR 79 32 18% 78 29.81 1007.0
31 19:53 W 5 10.00 Fair CLR 82.9 32 16% 80 29.82 1007.4
31 18:53 NW 7 10.00 Fair CLR 86 28.9 13% 83 29.82 1007.3
31 17:53 NW 6 10.00 Fair CLR 87.1 28.9 88 72 12% 83 29.85 1008.3
31 16:53 Vrbl 7 10.00 Fair CLR 88 26.1 10% 84 29.87 1008.8
31 15:53 Vrbl 3 10.00 Fair CLR 86 21.9 9% 83 29.91 1010.3
31 14:53 W 6 10.00 Fair CLR 84.9 26.1 12% 82 29.93 1011.1
31 13:53 E 6 10.00 Fair CLR 82 21.9 11% 80 29.97 1012.4
31 12:53 Vrbl 6 10.00 Fair CLR 78.1 24.1 13% 77 29.99 1013.4
31 11:53 Vrbl 3 10.00 Fair CLR 72 30.9 72 55 22% 30.02 1014.5
31 10:53 N 6 10.00 Fair CLR 68 32 26% 30.03 1015.0
31 09:53 N 6 10.00 Fair CLR 64 32 30% 30.04 1015.2
31 08:53 SE 8 10.00 Fair CLR 62.1 24.1 23% 30.03 1015.0
31 07:53 E 10 10.00 Fair CLR 57 24.1 28% 30.02 1014.6
31 06:53 E 9 10.00 Fair CLR 57 24.1 28% 30.01 1014.3
31 05:53 SE 8 10.00 Fair CLR 55.9 25 61 55 30% 30.01 1014.2
31 04:53 SE 7 10.00 Fair CLR 55 24.1 30% 30.02 1014.5
31 03:53 SE 7 10.00 Fair CLR 55.9 24.1 29% 30.01 1014.4
31 02:53 SE 9 10.00 Fair CLR 57.9 21 24% 30.01 1014.3
31 01:53 SE 7 10.00 Fair CLR 57.9 21.9 25% 30.01 1014.4
31 00:53 E 6 10.00 Fair CLR 59 23 25% 30.02 1014.8
30 23:53 SE 7 10.00 Fair CLR 61 24.1 77 59 24% 30.02 1014.8
30 22:53 W 5 10.00 Fair CLR 64 28 26% 30.02 1014.7
30 21:53 SW 3 10.00 Fair CLR 64.9 27 24% 30.01 1014.7
30 20:53 Calm 10.00 Fair CLR 70 24.1 18% 30 1014.1
30 19:53 N 10 10.00 Fair CLR 72 21 15% 29.99 1014.0
30 18:53 N 10 10.00 Fair CLR 75 27 17% 76 30.01 1014.6
30 17:53 NW 8 10.00 Fair CLR 77 17.1 77 63 10% 76 30.03 1014.9
30 16:53 N 6 G 17 10.00 Fair CLR 73.9 25 16% 30.04 1015.5
30 15:53 NW 8 10.00 Fair CLR 73 28.9 19% 30.06 1016.1
30 14:53 NW 12 G 18 10.00 Fair CLR 71.1 30 22% 30.08 1016.9
30 13:53 NW 13 G 18 10.00 Fair CLR 69.1 30.9 24% 30.1 1017.3
30 12:53 NW 10 10.00 Fair CLR 64.9 34 32% 30.12 1018.1
30 11:53 NW 8 10.00 Fair CLR 64 35.1 64 50 34% 30.13 1018.5
30 10:53 Calm 10.00 Fair CLR 61 37 41% 30.13 1018.6
30 09:53 NW 7 10.00 Fair CLR 57 36 45% 30.13 1018.5
30 08:53 NW 8 10.00 Fair CLR 55 36 49% 30.13 1018.2
30 07:53 Calm 10.00 Fair CLR 51.1 35.1 54% 30.11 1017.7
30 06:53 NW 3 10.00 Fair CLR 51.1 36 56% 30.08 1016.7
30 05:53 NW 9 10.00 Fair CLR 52 35.1 66.9 52 53% 30.07 1016.1
30 04:53 NW 10 10.00 Fair CLR 54 35.1 49% 30.06 1015.7
30 03:53 W 12 10.00 Fair CLR 55.9 34 44% 30.04 1014.9
30 02:53 W 7 10.00 Fair CLR 57 35.1 44% 30.02 1014.3
30 01:53 W 14 10.00 Fair CLR 61 34 36% 30 1013.3
30 00:53 W 13 10.00 Fair CLR 64 32 30% 29.96 1012.0
29 23:53 W 13 10.00 Fair CLR 66.9 34 84 66.9 30% 29.94 1011.3
29 22:53 NW 16 10.00 Fair CLR 69.1 36 30% 29.93 1010.9
29 21:53 NW 12 10.00 Fair CLR 71.1 36 28% 29.9 1009.7
29 20:53 NW 18 G 28 10.00 Fair CLR 75.9 33.1 21% 76 29.86 1008.4
29 19:53 N 9 10.00 Fair CLR 79 32 18% 78 29.85 1008.0
29 18:53 NW 10 10.00 Fair CLR 82.9 33.1 17% 80 29.84 1007.6
29 17:53 NW 9 10.00 Fair CLR 84.9 36 86 78.1 17% 82 29.85 1007.7
29 16:53 Calm 10.00 Fair CLR 84 34 17% 81 29.86 1008.2
29 15:53 N 8 10.00 Fair CLR 84 39 20% 81 29.89 1008.9
29 14:53 NW 10 10.00 Fair CLR 82.9 41 23% 81 29.91 1009.7
Date Time (mdt) Wind (mph) Vis. (mi.) Weather Sky Cond. Air Dwpt Max. Min. Relative Humidity Wind Chill (°F) Heat Index (°F) altimeter (in) sea level (mb) 1 hr 3 hr 6 hr
6 hour
Temperature (ºF) Pressure Precipitation (in)